Airfield :
LOGIN :

Register | Disclaimer

   EN    FR    IT 

 










Legend :    VFR   Marginal VFR   IFR   Intensive IFR   Very Intensive IFR
Visi :
Ceiling :
>= 8 km
>= 3000ft
5 to 8 km
1000 to 3000 ft
1500m to 5 km
500 to 1000 ft
800 to 1500m
200 to 500 ft
< 800m
< 200 ft
Symbols :   Thunderstorms  Fog  Heavy snow  Heavy precipitations  Wind > 20 kt
SIGMETs :     Misc.  Thunderstorms  Icing  Turbulence  Mountain Waves  Volcanic Ashes







- Airport Elevation : 80 ft
- IATA code : LPL
- Download approach charts


EGGP - Liverpool John Lennon

CURRENT METAR :
  • 241520Z 16010KT 130V190 CAVOK 27/13 Q1016

EXPIRED METARs :
  • 241450Z 16009KT CAVOK 27/13 Q1017
  • 241420Z 15008KT 100V190 CAVOK 27/14 Q1017
  • 241350Z 15010KT 100V180 CAVOK 26/13 Q1017
  • 241320Z 15010KT 120V190 CAVOK 26/13 Q1017
  • 241250Z 15009KT 100V180 CAVOK 25/13 Q1018
  • 241220Z 15008KT 120V190 CAVOK 25/14 Q1018

TAF TAF EGGP
Valid from the 24 at 12:00 until the 25 at 12:00 UTC


241056Z 2412/2512 16009KT 9999 FEW045
PROB30
TEMPO 2510/2512 31010KT 9000 BKN009
ATIS : +44 151 907 2000 (option 5 or ext 5150)
Met : +44 871 750 5150
No reported NOTAMs for that airfield.



MET'MAP, your aeronautical weather chart ! - Copyright ORBIFLY December 2007 - Disclaimer

ORBIFLY MET'MAP TEAM :

Programming & Development : Alexandra Zaïnal
Concept & Development : Baudouin d'Aumeries
Co-Development & Prog : Marc-Olivier Méhu
Technical & hardware support : Manuel Goepfert

Contact : metmap@orbifly.com




SOURCES & CREDITS :

   NOAA